Time;durP1;ratioP1;P1;durP2;ratioP2;P2;SDS_P1;SDS_P2;PMS_P1;PMS_P2;Temp;Humidity;BMP_temperature;BMP_pressure;BME280_temperature;BME280_humidity;BME280_pressure;Samples;Min_cycle;Max_cycle;Signal;HPM_P1;HPM_P2
2021/10/05 00:02:25;;;;;;;41.30;32.10;;;;;;;11.00;79.69;99687.90;476958;1190;141705;-59
2021/10/05 00:12:32;;;;;;;43.40;33.50;;;;;;;11.11;80.16;99679.48;473368;1190;142379;-59
2021/10/05 00:22:39;;;;;;;37.70;31.60;;;;;;;11.12;80.19;99678.36;477701;1191;141112;-58
2021/10/05 00:32:45;;;;;;;37.00;29.70;;;;;;;11.14;80.27;99677.89;475160;1190;142245;-58
2021/10/05 00:42:52;;;;;;;38.20;31.20;;;;;;;11.18;80.50;99667.78;477609;1191;141051;-58
2021/10/05 00:52:59;;;;;;;35.40;29.20;;;;;;;11.21;80.65;99660.58;475522;1191;142267;-59
2021/10/05 01:03:05;;;;;;;36.80;28.90;;;;;;;11.24;80.81;99660.39;465414;1192;142446;-59
2021/10/05 01:13:12;;;;;;;34.90;29.40;;;;;;;11.24;80.90;99654.46;470933;1190;140861;-60
2021/10/05 01:23:18;;;;;;;33.40;27.50;;;;;;;11.20;81.09;99649.77;476909;1190;144982;-59
2021/10/05 01:33:27;;;;;;;31.80;27.00;;;;;;;11.18;81.17;99639.44;471880;1190;141990;-58
2021/10/05 01:43:33;;;;;;;31.00;24.80;;;;;;;11.12;81.25;99631.22;474770;1190;143282;-58
2021/10/05 01:53:40;;;;;;;29.30;26.10;;;;;;;11.06;81.23;99627.74;476999;1190;141959;-58
2021/10/05 02:03:46;;;;;;;29.00;24.80;;;;;;;11.00;81.38;99626.55;477731;1190;143109;-59
2021/10/05 02:13:52;;;;;;;27.60;24.00;;;;;;;10.94;81.41;99626.45;476600;1190;142232;-58
2021/10/05 02:34:21;;;;;;;26.90;22.90;;;;;;;10.77;81.52;99613.69;477825;1190;142230;-58
2021/10/05 02:44:27;;;;;;;30.10;24.00;;;;;;;10.69;81.51;99610.35;476978;1190;142620;-59
2021/10/05 02:54:33;;;;;;;28.10;24.00;;;;;;;10.61;81.66;99603.45;467614;1190;145536;-58
2021/10/05 03:04:40;;;;;;;29.50;23.50;;;;;;;10.54;81.68;99600.08;472363;1190;140835;-58
2021/10/05 03:14:45;;;;;;;29.50;23.00;;;;;;;10.45;81.87;99607.29;474263;1191;142897;-58
2021/10/05 03:24:51;;;;;;;27.30;20.50;;;;;;;10.38;81.89;99607.34;477649;1190;141662;-59
2021/10/05 03:34:57;;;;;;;23.60;20.70;;;;;;;10.31;82.02;99596.40;477736;1190;145373;-58
2021/10/05 03:45:03;;;;;;;23.50;20.70;;;;;;;10.24;82.02;99595.76;475076;1190;142066;-58
2021/10/05 03:55:11;;;;;;;27.10;21.00;;;;;;;10.16;82.04;99594.69;461139;1188;140961;-58
2021/10/05 04:05:16;;;;;;;27.90;22.20;;;;;;;10.05;82.17;99586.13;476693;1191;142037;-59
2021/10/05 04:15:24;;;;;;;24.00;20.90;;;;;;;9.95;82.25;99582.18;471243;1190;142902;-58
2021/10/05 04:25:30;;;;;;;24.80;21.80;;;;;;;9.88;82.23;99580.55;460864;1191;141603;-58
2021/10/05 04:35:36;;;;;;;25.50;22.40;;;;;;;9.79;82.43;99573.51;475746;1190;141628;-58
2021/10/05 04:45:44;;;;;;;27.60;22.70;;;;;;;9.74;82.45;99568.23;471353;1190;142031;-58
2021/10/05 04:55:50;;;;;;;29.10;22.40;;;;;;;9.71;82.55;99564.59;477711;1190;141185;-58
2021/10/05 05:05:55;;;;;;;27.70;21.90;;;;;;;9.73;82.58;99556.24;476903;1190;141332;-58
2021/10/05 05:16:01;;;;;;;34.40;23.10;;;;;;;9.85;82.52;99553.40;465191;1178;141344;-59
2021/10/05 05:26:07;;;;;;;24.70;20.70;;;;;;;10.04;82.24;99561.16;475832;1190;141002;-59
2021/10/05 05:36:13;;;;;;;26.80;21.00;;;;;;;10.31;81.94;99555.46;477412;1190;142258;-59
2021/10/05 05:46:19;;;;;;;19.90;17.80;;;;;;;11.39;81.40;99563.45;477691;1190;141493;-59
2021/10/05 05:56:25;;;;;;;16.60;14.90;;;;;;;14.78;77.94;99557.58;477045;1190;144248;-59
2021/10/05 06:06:31;;;;;;;18.90;13.80;;;;;;;18.01;71.86;99557.10;477144;1192;141513;-59
2021/10/05 06:16:37;;;;;;;21.40;14.20;;;;;;;20.43;66.35;99562.34;477411;1191;142007;-60
2021/10/05 06:26:45;;;;;;;15.20;13.60;;;;;;;22.44;61.45;99553.62;476909;1190;143979;-59
2021/10/05 06:36:51;;;;;;;14.40;13.00;;;;;;;23.66;57.08;99534.86;471130;1190;141125;-58
2021/10/05 06:46:57;;;;;;;14.50;12.30;;;;;;;24.54;54.06;99523.94;461359;1190;10002887;-60
2021/10/05 06:57:03;;;;;;;13.90;12.40;;;;;;;25.40;51.40;99523.17;462616;1192;141413;-59
2021/10/05 07:07:09;;;;;;;15.90;13.90;;;;;;;26.64;48.65;99517.06;467293;1190;140356;-59
2021/10/05 07:17:20;;;;;;;13.20;11.90;;;;;;;27.53;46.07;99499.29;468483;1191;141354;-59
2021/10/05 07:27:24;;;;;;;;;;;;;;;29.37;43.75;99478.52;477408;1191;141076;-60
2021/10/05 07:37:30;;;;;;;13.80;11.30;;;;;;;30.76;40.88;99480.94;473451;1190;127154;-64
2021/10/05 07:47:36;;;;;;;15.00;12.40;;;;;;;31.56;39.24;99476.98;473016;1191;142626;-62
2021/10/05 07:57:42;;;;;;;12.90;11.50;;;;;;;32.79;37.26;99459.77;469762;1189;141621;-63
2021/10/05 08:07:55;;;;;;;11.60;10.50;;;;;;;33.85;35.06;99452.73;465199;1191;140848;-61
2021/10/05 08:18:01;;;;;;;10.70;9.70;;;;;;;33.78;33.50;99444.45;473332;1191;143254;-58
2021/10/05 08:28:07;;;;;;;12.00;10.80;;;;;;;33.50;32.90;99446.60;471260;1190;140499;-63
2021/10/05 08:38:13;;;;;;;9.80;8.80;;;;;;;33.89;32.05;99437.77;452869;1190;10002929;-64
2021/10/05 08:48:19;;;;;;;9.30;8.50;;;;;;;33.73;31.51;99432.92;466712;1190;141234;-64
2021/10/05 08:58:25;;;;;;;10.70;9.60;;;;;;;32.99;31.51;99424.31;462708;1190;141728;-64
2021/10/05 09:08:32;;;;;;;10.80;9.80;;;;;;;27.85;35.15;99420.05;476878;1190;160292;-64
2021/10/05 09:18:39;;;;;;;10.80;9.40;;;;;;;23.91;39.45;99413.36;477782;1190;141842;-65
2021/10/05 09:28:45;;;;;;;12.20;8.00;;;;;;;22.07;43.10;99406.02;467785;1184;140429;-65
2021/10/05 09:39:02;;;;;;;10.30;7.10;;;;;;;21.24;45.21;99392.29;467229;1191;143283;-65
2021/10/05 09:49:09;;;;;;;12.60;8.80;;;;;;;20.97;46.34;99382.20;464398;1191;140872;-67
2021/10/05 09:59:15;;;;;;;11.90;7.40;;;;;;;20.62;47.55;99375.65;460329;1191;142091;-67
2021/10/05 10:09:21;;;;;;;17.90;7.40;;;;;;;20.38;48.54;99377.70;477347;1191;141009;-66
2021/10/05 10:19:30;;;;;;;12.70;6.70;;;;;;;20.37;49.14;99362.41;468952;1191;141012;-64
2021/10/05 10:29:36;;;;;;;10.10;6.90;;;;;;;20.29;49.36;99344.92;466559;1190;142338;-64
2021/10/05 10:39:44;;;;;;;12.00;6.40;;;;;;;20.38;49.70;99337.92;473635;1190;142443;-68
2021/10/05 10:49:59;;;;;;;12.00;6.20;;;;;;;20.55;49.78;99326.13;464489;1190;142241;-64
2021/10/05 11:00:21;;;;;;;9.60;7.30;;;;;;;20.56;49.66;99322.81;465638;1191;141126;-64
2021/10/05 11:10:28;;;;;;;6.70;6.10;;;;;;;20.63;49.62;99312.58;477610;1190;141116;-63
2021/10/05 11:20:36;;;;;;;12.00;7.00;;;;;;;20.85;49.66;99307.72;467324;1190;141362;-61
2021/10/05 11:30:54;;;;;;;7.20;6.50;;;;;;;21.04;49.60;99294.39;477547;1190;140435;-62
2021/10/05 11:41:01;;;;;;;7.20;6.40;;;;;;;21.23;49.75;99269.86;468050;1190;142855;-65
2021/10/05 11:51:07;;;;;;;9.30;7.00;;;;;;;21.34;49.41;99260.70;468721;1190;141413;-64
2021/10/05 12:01:20;;;;;;;9.70;5.90;;;;;;;21.42;49.39;99247.34;460922;1190;140475;-62
2021/10/05 12:11:37;;;;;;;7.50;5.60;;;;;;;21.48;49.25;99243.02;466369;1183;140293;-62
2021/10/05 12:21:52;;;;;;;7.60;5.50;;;;;;;21.49;49.16;99238.98;462418;1191;141291;-63
2021/10/05 12:32:00;;;;;;;7.30;6.40;;;;;;;21.53;49.21;99235.80;475850;1191;140741;-63
2021/10/05 12:42:07;;;;;;;10.80;6.60;;;;;;;21.56;49.19;99227.81;468891;1176;141582;-62
2021/10/05 12:52:14;;;;;;;7.80;5.60;;;;;;;21.62;49.50;99223.67;473985;1191;140266;-63
2021/10/05 13:02:20;;;;;;;9.00;6.10;;;;;;;21.72;49.43;99213.64;459477;1191;143601;-64
2021/10/05 13:12:32;;;;;;;7.70;5.60;;;;;;;21.69;49.14;99212.04;467885;1191;141133;-62
2021/10/05 13:22:55;;;;;;;10.20;6.60;;;;;;;21.62;49.34;99211.38;475760;1190;140171;-64
2021/10/05 13:33:02;;;;;;;9.00;6.50;;;;;;;21.50;49.22;99206.01;461391;1190;139610;-60
2021/10/05 13:43:08;;;;;;;10.10;6.60;;;;;;;21.37;49.34;99205.02;461363;1191;143936;-57
2021/10/05 13:53:14;;;;;;;9.80;7.80;;;;;;;21.26;49.59;99194.21;459844;1192;154863;-57
2021/10/05 14:03:20;;;;;;;7.60;6.20;;;;;;;21.12;49.69;99183.04;477475;1190;140726;-58
2021/10/05 14:13:27;;;;;;;11.10;7.50;;;;;;;21.02;49.81;99171.98;465679;1190;140594;-57
2021/10/05 14:23:33;;;;;;;10.90;7.70;;;;;;;20.92;50.13;99169.05;475851;1191;141394;-59
2021/10/05 14:33:39;;;;;;;9.60;6.30;;;;;;;20.86;50.58;99165.44;477834;1190;140365;-59
2021/10/05 14:43:46;;;;;;;10.20;7.20;;;;;;;20.79;50.77;99155.73;477708;1190;139938;-59
2021/10/05 14:53:52;;;;;;;9.40;6.50;;;;;;;20.69;50.97;99152.95;461921;1190;141055;-59
2021/10/05 15:04:04;;;;;;;11.70;7.20;;;;;;;20.57;51.09;99147.19;463310;1192;140909;-59
2021/10/05 15:14:10;;;;;;;7.40;6.00;;;;;;;20.40;51.02;99145.99;462755;1192;140907;-57
2021/10/05 15:24:15;;;;;;;10.80;6.70;;;;;;;20.20;51.31;99138.48;468923;1191;140430;-58
2021/10/05 15:34:22;;;;;;;7.30;6.30;;;;;;;19.99;51.50;99134.77;461565;1192;144526;-66
2021/10/05 15:44:27;;;;;;;13.50;8.70;;;;;;;19.75;51.75;99132.73;462740;1190;141003;-63
2021/10/05 15:54:33;;;;;;;9.40;7.70;;;;;;;19.50;52.19;99132.21;457300;1190;10003422;-61
2021/10/05 16:04:39;;;;;;;9.40;7.40;;;;;;;19.28;52.56;99138.91;477551;1190;141329;-65
2021/10/05 16:14:45;;;;;;;9.20;6.90;;;;;;;19.06;52.92;99144.08;471173;1191;140663;-64
2021/10/05 16:24:51;;;;;;;9.80;7.70;;;;;;;18.90;53.05;99149.27;456009;1190;10137990;-68
2021/10/05 16:34:57;;;;;;;8.30;7.40;;;;;;;18.72;53.30;99158.41;461354;1190;141014;-65
2021/10/05 16:45:05;;;;;;;10.10;7.30;;;;;;;18.51;53.44;99166.13;471594;1190;140136;-67
2021/10/05 16:55:10;;;;;;;;;;;;;;;18.28;53.44;99165.27;477616;1190;140831;-67
2021/10/05 17:05:16;;;;;;;9.70;7.50;;;;;;;18.09;53.41;99174.80;477163;1191;126942;-68
2021/10/05 17:15:22;;;;;;;7.50;5.90;;;;;;;17.92;53.53;99176.33;465697;1192;140014;-71
2021/10/05 17:25:28;;;;;;;9.40;5.50;;;;;;;17.77;53.44;99180.80;459968;1190;142458;-61
2021/10/05 17:35:34;;;;;;;7.00;6.20;;;;;;;17.60;53.55;99180.02;465451;1190;140947;-63
2021/10/05 17:45:40;;;;;;;6.50;5.60;;;;;;;17.42;53.44;99184.45;465108;1190;140325;-63
2021/10/05 17:55:48;;;;;;;6.60;4.80;;;;;;;17.25;53.41;99190.88;469595;1192;139930;-61
2021/10/05 18:05:54;;;;;;;9.20;5.90;;;;;;;17.07;53.68;99204.52;468034;1190;141154;-62
2021/10/05 18:16:00;;;;;;;9.70;6.70;;;;;;;16.91;53.78;99207.25;477667;1190;140535;-62
2021/10/05 18:26:06;;;;;;;6.80;5.40;;;;;;;16.77;53.94;99214.55;462220;1192;141137;-61
2021/10/05 18:36:12;;;;;;;9.80;5.50;;;;;;;16.63;54.14;99219.42;472512;1192;140514;-62
2021/10/05 18:46:18;;;;;;;7.00;6.00;;;;;;;16.59;54.38;99216.48;464737;1190;139499;-62
2021/10/05 18:56:24;;;;;;;8.70;5.50;;;;;;;16.64;54.31;99218.14;470637;1191;141491;-63
2021/10/05 19:06:30;;;;;;;7.60;6.40;;;;;;;16.48;54.53;99227.08;467434;1192;140882;-61
2021/10/05 19:16:37;;;;;;;12.50;6.90;;;;;;;16.27;55.05;99236.05;464020;1190;141487;-61
2021/10/05 19:26:44;;;;;;;9.80;7.30;;;;;;;16.23;55.45;99246.29;461497;1190;141664;-62
2021/10/05 19:36:50;;;;;;;10.00;7.90;;;;;;;16.20;55.80;99254.21;460924;1190;141894;-60
2021/10/05 19:46:56;;;;;;;8.90;7.00;;;;;;;16.20;56.16;99265.33;461156;1190;140626;-60
2021/10/05 19:57:02;;;;;;;9.70;8.20;;;;;;;16.19;56.42;99268.59;460048;1177;195607;-62
2021/10/05 20:07:08;;;;;;;14.10;8.00;;;;;;;16.14;56.80;99265.88;461003;1192;141639;-61
2021/10/05 20:17:14;;;;;;;10.60;8.70;;;;;;;16.10;57.05;99264.82;460713;1190;140849;-67
2021/10/05 20:27:20;;;;;;;9.30;6.70;;;;;;;16.02;57.38;99274.88;461400;1190;142101;-65
2021/10/05 20:37:27;;;;;;;10.20;7.70;;;;;;;15.93;57.76;99280.48;460904;1178;141022;-63
2021/10/05 20:47:33;;;;;;;9.70;6.80;;;;;;;15.74;58.10;99277.89;475559;1191;141393;-67
2021/10/05 20:57:39;;;;;;;10.10;6.90;;;;;;;15.46;58.72;99279.55;463948;1191;142563;-57
2021/10/05 21:07:45;;;;;;;11.00;8.30;;;;;;;15.25;59.42;99275.95;469763;1191;142091;-58
2021/10/05 21:17:51;;;;;;;11.10;8.70;;;;;;;15.04;59.88;99275.61;464199;1190;140967;-58
2021/10/05 21:27:57;;;;;;;10.60;9.40;;;;;;;14.89;60.27;99271.11;460676;1190;145792;-55
2021/10/05 21:38:03;;;;;;;7.50;6.70;;;;;;;14.68;60.84;99276.98;461966;1191;141890;-58
2021/10/05 21:48:09;;;;;;;11.60;8.00;;;;;;;14.48;61.52;99288.16;461630;1190;140666;-63
2021/10/05 21:58:15;;;;;;;9.20;7.70;;;;;;;14.31;61.92;99289.59;461918;1192;142069;-61
2021/10/05 22:08:21;;;;;;;13.30;9.40;;;;;;;14.16;62.36;99291.75;460631;1190;141889;-61
2021/10/05 22:18:27;;;;;;;11.50;8.00;;;;;;;14.05;62.77;99294.88;461079;1190;141737;-61
2021/10/05 22:28:32;;;;;;;11.30;8.60;;;;;;;13.96;63.15;99286.86;464193;1190;143440;-61
2021/10/05 22:38:40;;;;;;;12.30;8.00;;;;;;;13.85;63.42;99287.55;466196;1190;142796;-61
2021/10/05 22:48:47;;;;;;;15.60;9.20;;;;;;;13.72;63.84;99290.88;467072;1184;146548;-61
2021/10/05 22:58:53;;;;;;;9.80;7.20;;;;;;;13.60;64.18;99307.04;477759;1190;141568;-62
2021/10/05 23:08:59;;;;;;;11.40;7.40;;;;;;;13.51;64.52;99313.31;472767;1191;140962;-60
2021/10/05 23:19:05;;;;;;;10.30;7.40;;;;;;;13.47;64.79;99311.41;474486;1190;140916;-62
2021/10/05 23:29:11;;;;;;;10.70;8.40;;;;;;;13.35;64.99;99316.83;477111;1190;142588;-60
2021/10/05 23:39:16;;;;;;;9.50;7.70;;;;;;;13.27;65.36;99313.83;463045;1190;141554;-61
2021/10/05 23:49:22;;;;;;;9.60;7.20;;;;;;;13.23;65.49;99311.54;477601;1184;141572;-62
2021/10/05 23:59:28;;;;;;;10.60;7.20;;;;;;;13.17;65.57;99316.90;469107;1190;140830;-60
